sensor_id;sensor_type;location;lat;lon;timestamp;temperature;humidity
71672;DHT22;67659;45.554;11.812;2023-05-21T00:01:05;19.60;99.90
71672;DHT22;67659;45.554;11.812;2023-05-21T00:03:32;19.60;99.90
71672;DHT22;67659;45.554;11.812;2023-05-21T00:06:00;19.70;99.90
71672;DHT22;67659;45.554;11.812;2023-05-21T00:08:28;19.60;99.90
71672;DHT22;67659;45.554;11.812;2023-05-21T00:10:54;19.60;99.90
71672;DHT22;67659;45.554;11.812;2023-05-21T00:13:20;19.60;99.90
71672;DHT22;67659;45.554;11.812;2023-05-21T00:15:45;19.60;99.90
71672;DHT22;67659;45.554;11.812;2023-05-21T00:18:11;19.60;99.90
71672;DHT22;67659;45.554;11.812;2023-05-21T00:20:37;19.60;99.90
71672;DHT22;67659;45.554;11.812;2023-05-21T00:23:06;19.60;99.90
71672;DHT22;67659;45.554;11.812;2023-05-21T00:25:32;19.60;99.90
71672;DHT22;67659;45.554;11.812;2023-05-21T00:27:58;19.50;99.90
71672;DHT22;67659;45.554;11.812;2023-05-21T00:30:24;19.60;99.90
71672;DHT22;67659;45.554;11.812;2023-05-21T00:32:50;19.70;99.90
71672;DHT22;67659;45.554;11.812;2023-05-21T00:35:16;19.60;99.90
71672;DHT22;67659;45.554;11.812;2023-05-21T00:37:42;19.70;99.90
71672;DHT22;67659;45.554;11.812;2023-05-21T00:40:08;19.70;99.90
71672;DHT22;67659;45.554;11.812;2023-05-21T00:42:34;19.60;99.90
71672;DHT22;67659;45.554;11.812;2023-05-21T00:45:06;19.70;99.90
71672;DHT22;67659;45.554;11.812;2023-05-21T00:47:33;19.70;99.90
71672;DHT22;67659;45.554;11.812;2023-05-21T00:50:01;19.70;99.90
71672;DHT22;67659;45.554;11.812;2023-05-21T00:52:28;19.60;99.90
71672;DHT22;67659;45.554;11.812;2023-05-21T00:54:54;19.60;99.90
71672;DHT22;67659;45.554;11.812;2023-05-21T00:57:22;19.60;99.90
71672;DHT22;67659;45.554;11.812;2023-05-21T00:59:51;19.60;99.90
71672;DHT22;67659;45.554;11.812;2023-05-21T01:02:17;19.80;99.90
71672;DHT22;67659;45.554;11.812;2023-05-21T01:04:44;19.90;99.90
71672;DHT22;67659;45.554;11.812;2023-05-21T01:07:11;19.90;99.90
71672;DHT22;67659;45.554;11.812;2023-05-21T01:09:40;19.90;99.90
71672;DHT22;67659;45.554;11.812;2023-05-21T01:12:07;20.00;99.90
71672;DHT22;67659;45.554;11.812;2023-05-21T01:14:35;20.10;99.90
71672;DHT22;67659;45.554;11.812;2023-05-21T01:17:07;20.10;99.90
71672;DHT22;67659;45.554;11.812;2023-05-21T01:19:35;20.20;99.90
71672;DHT22;67659;45.554;11.812;2023-05-21T01:22:04;20.20;99.90
71672;DHT22;67659;45.554;11.812;2023-05-21T01:24:31;20.30;99.90
71672;DHT22;67659;45.554;11.812;2023-05-21T01:26:58;20.40;99.90
71672;DHT22;67659;45.554;11.812;2023-05-21T01:29:24;20.30;99.90
71672;DHT22;67659;45.554;11.812;2023-05-21T01:31:58;20.30;99.90
71672;DHT22;67659;45.554;11.812;2023-05-21T01:34:34;20.30;98.40
71672;DHT22;67659;45.554;11.812;2023-05-21T01:37:13;20.40;97.20
71672;DHT22;67659;45.554;11.812;2023-05-21T01:39:42;20.40;96.90
71672;DHT22;67659;45.554;11.812;2023-05-21T01:42:09;20.50;98.70
71672;DHT22;67659;45.554;11.812;2023-05-21T01:44:36;20.40;99.40
71672;DHT22;67659;45.554;11.812;2023-05-21T01:47:04;20.50;99.90
71672;DHT22;67659;45.554;11.812;2023-05-21T01:49:30;20.40;98.30
71672;DHT22;67659;45.554;11.812;2023-05-21T01:51:56;20.50;98.50
71672;DHT22;67659;45.554;11.812;2023-05-21T01:54:22;20.50;97.80
71672;DHT22;67659;45.554;11.812;2023-05-21T01:56:48;20.40;98.10
71672;DHT22;67659;45.554;11.812;2023-05-21T01:59:15;20.50;97.30
71672;DHT22;67659;45.554;11.812;2023-05-21T02:01:42;20.50;97.40
71672;DHT22;67659;45.554;11.812;2023-05-21T02:04:07;20.60;97.40
71672;DHT22;67659;45.554;11.812;2023-05-21T02:06:33;20.60;96.80
71672;DHT22;67659;45.554;11.812;2023-05-21T02:09:01;20.60;96.80
71672;DHT22;67659;45.554;11.812;2023-05-21T02:11:27;20.60;96.50
71672;DHT22;67659;45.554;11.812;2023-05-21T02:13:52;20.60;96.30
71672;DHT22;67659;45.554;11.812;2023-05-21T02:16:19;20.60;95.80
71672;DHT22;67659;45.554;11.812;2023-05-21T02:18:47;20.60;96.10
71672;DHT22;67659;45.554;11.812;2023-05-21T02:21:16;20.50;96.50
71672;DHT22;67659;45.554;11.812;2023-05-21T02:23:42;20.70;96.30
71672;DHT22;67659;45.554;11.812;2023-05-21T02:26:07;20.70;96.10
71672;DHT22;67659;45.554;11.812;2023-05-21T02:28:33;20.60;96.40
71672;DHT22;67659;45.554;11.812;2023-05-21T02:31:00;20.60;95.80
71672;DHT22;67659;45.554;11.812;2023-05-21T02:33:26;20.50;96.40
71672;DHT22;67659;45.554;11.812;2023-05-21T02:35:52;20.50;97.30
71672;DHT22;67659;45.554;11.812;2023-05-21T02:38:18;20.50;97.90
71672;DHT22;67659;45.554;11.812;2023-05-21T02:40:48;20.50;97.80
71672;DHT22;67659;45.554;11.812;2023-05-21T02:43:15;20.40;97.60
71672;DHT22;67659;45.554;11.812;2023-05-21T02:45:41;20.40;97.60
71672;DHT22;67659;45.554;11.812;2023-05-21T02:48:07;20.40;97.50
71672;DHT22;67659;45.554;11.812;2023-05-21T02:50:33;20.40;97.80
71672;DHT22;67659;45.554;11.812;2023-05-21T02:52:59;20.50;97.10
71672;DHT22;67659;45.554;11.812;2023-05-21T02:55:25;20.30;96.60
71672;DHT22;67659;45.554;11.812;2023-05-21T02:57:50;20.40;96.20
71672;DHT22;67659;45.554;11.812;2023-05-21T03:00:16;20.50;95.90
71672;DHT22;67659;45.554;11.812;2023-05-21T03:02:42;20.40;95.60
71672;DHT22;67659;45.554;11.812;2023-05-21T03:05:08;20.50;95.00
71672;DHT22;67659;45.554;11.812;2023-05-21T03:07:34;20.50;95.20
71672;DHT22;67659;45.554;11.812;2023-05-21T03:10:00;20.50;94.60
71672;DHT22;67659;45.554;11.812;2023-05-21T03:12:26;20.50;94.70
71672;DHT22;67659;45.554;11.812;2023-05-21T03:14:52;20.50;94.30
71672;DHT22;67659;45.554;11.812;2023-05-21T03:17:18;20.50;94.40
71672;DHT22;67659;45.554;11.812;2023-05-21T03:19:44;20.50;94.00
71672;DHT22;67659;45.554;11.812;2023-05-21T03:22:10;20.50;93.40
71672;DHT22;67659;45.554;11.812;2023-05-21T03:24:37;20.50;93.60
71672;DHT22;67659;45.554;11.812;2023-05-21T03:27:03;20.60;93.30
71672;DHT22;67659;45.554;11.812;2023-05-21T03:29:31;20.50;93.00
71672;DHT22;67659;45.554;11.812;2023-05-21T03:31:57;20.50;92.50
71672;DHT22;67659;45.554;11.812;2023-05-21T03:34:22;20.50;92.90
71672;DHT22;67659;45.554;11.812;2023-05-21T03:36:49;20.50;92.80
71672;DHT22;67659;45.554;11.812;2023-05-21T03:39:15;20.50;92.80
71672;DHT22;67659;45.554;11.812;2023-05-21T03:41:41;20.50;92.80
71672;DHT22;67659;45.554;11.812;2023-05-21T03:44:08;20.50;92.50
71672;DHT22;67659;45.554;11.812;2023-05-21T03:46:34;20.50;92.30
71672;DHT22;67659;45.554;11.812;2023-05-21T03:48:59;20.60;92.40
71672;DHT22;67659;45.554;11.812;2023-05-21T03:51:25;20.60;91.80
71672;DHT22;67659;45.554;11.812;2023-05-21T03:53:52;20.60;91.90
71672;DHT22;67659;45.554;11.812;2023-05-21T03:56:17;20.70;92.20
71672;DHT22;67659;45.554;11.812;2023-05-21T03:58:43;20.60;92.30
71672;DHT22;67659;45.554;11.812;2023-05-21T04:01:09;20.60;92.30
71672;DHT22;67659;45.554;11.812;2023-05-21T04:03:35;20.60;92.10
71672;DHT22;67659;45.554;11.812;2023-05-21T04:06:02;20.60;92.20
71672;DHT22;67659;45.554;11.812;2023-05-21T04:08:28;20.60;91.90
71672;DHT22;67659;45.554;11.812;2023-05-21T04:10:54;20.70;91.80
71672;DHT22;67659;45.554;11.812;2023-05-21T04:13:20;20.70;92.20
71672;DHT22;67659;45.554;11.812;2023-05-21T04:15:46;20.70;92.10
71672;DHT22;67659;45.554;11.812;2023-05-21T04:18:13;20.70;92.20
71672;DHT22;67659;45.554;11.812;2023-05-21T04:20:41;20.70;91.90
71672;DHT22;67659;45.554;11.812;2023-05-21T04:23:07;20.70;91.90
71672;DHT22;67659;45.554;11.812;2023-05-21T04:25:33;20.70;91.20
71672;DHT22;67659;45.554;11.812;2023-05-21T04:27:59;20.70;91.90
71672;DHT22;67659;45.554;11.812;2023-05-21T04:30:25;20.70;91.60
71672;DHT22;67659;45.554;11.812;2023-05-21T04:32:51;20.60;91.20
71672;DHT22;67659;45.554;11.812;2023-05-21T04:35:17;20.70;91.10
71672;DHT22;67659;45.554;11.812;2023-05-21T04:37:43;20.60;91.00
71672;DHT22;67659;45.554;11.812;2023-05-21T04:40:11;20.70;91.20
71672;DHT22;67659;45.554;11.812;2023-05-21T04:42:44;20.70;91.80
71672;DHT22;67659;45.554;11.812;2023-05-21T04:45:11;20.60;92.10
71672;DHT22;67659;45.554;11.812;2023-05-21T04:47:37;20.70;92.00
71672;DHT22;67659;45.554;11.812;2023-05-21T04:50:03;20.70;92.40
71672;DHT22;67659;45.554;11.812;2023-05-21T04:52:29;20.70;92.30
71672;DHT22;67659;45.554;11.812;2023-05-21T04:54:56;20.60;92.20
71672;DHT22;67659;45.554;11.812;2023-05-21T04:57:22;20.70;92.30
71672;DHT22;67659;45.554;11.812;2023-05-21T04:59:49;20.70;92.60
71672;DHT22;67659;45.554;11.812;2023-05-21T05:02:15;20.80;91.70
71672;DHT22;67659;45.554;11.812;2023-05-21T05:04:41;20.80;92.00
71672;DHT22;67659;45.554;11.812;2023-05-21T05:07:08;20.80;92.00
71672;DHT22;67659;45.554;11.812;2023-05-21T05:09:34;20.80;91.90
71672;DHT22;67659;45.554;11.812;2023-05-21T05:12:00;20.90;92.00
71672;DHT22;67659;45.554;11.812;2023-05-21T05:14:26;20.90;91.10
71672;DHT22;67659;45.554;11.812;2023-05-21T05:16:52;20.90;91.50
71672;DHT22;67659;45.554;11.812;2023-05-21T05:19:19;20.90;91.80
71672;DHT22;67659;45.554;11.812;2023-05-21T05:21:45;21.00;91.70
71672;DHT22;67659;45.554;11.812;2023-05-21T05:24:11;21.00;91.50
71672;DHT22;67659;45.554;11.812;2023-05-21T05:26:37;21.00;91.50
71672;DHT22;67659;45.554;11.812;2023-05-21T05:29:03;21.00;91.60
71672;DHT22;67659;45.554;11.812;2023-05-21T05:31:28;21.10;91.90
71672;DHT22;67659;45.554;11.812;2023-05-21T05:33:54;21.10;91.90
71672;DHT22;67659;45.554;11.812;2023-05-21T05:36:20;21.20;92.10
71672;DHT22;67659;45.554;11.812;2023-05-21T05:38:47;21.20;91.80
71672;DHT22;67659;45.554;11.812;2023-05-21T05:41:13;21.40;92.30
71672;DHT22;67659;45.554;11.812;2023-05-21T05:43:38;21.40;92.40
71672;DHT22;67659;45.554;11.812;2023-05-21T05:46:04;21.50;92.10
71672;DHT22;67659;45.554;11.812;2023-05-21T05:48:30;21.70;91.70
71672;DHT22;67659;45.554;11.812;2023-05-21T05:50:56;21.70;91.30
71672;DHT22;67659;45.554;11.812;2023-05-21T05:53:22;22.30;90.40
71672;DHT22;67659;45.554;11.812;2023-05-21T05:55:47;22.50;89.50
71672;DHT22;67659;45.554;11.812;2023-05-21T05:58:13;22.80;88.70
71672;DHT22;67659;45.554;11.812;2023-05-21T06:00:39;23.10;88.50
71672;DHT22;67659;45.554;11.812;2023-05-21T06:03:05;23.50;88.20
71672;DHT22;67659;45.554;11.812;2023-05-21T06:05:31;24.00;84.40
71672;DHT22;67659;45.554;11.812;2023-05-21T06:07:57;24.30;83.80
71672;DHT22;67659;45.554;11.812;2023-05-21T06:10:22;24.50;85.70
71672;DHT22;67659;45.554;11.812;2023-05-21T06:12:48;25.00;84.10
71672;DHT22;67659;45.554;11.812;2023-05-21T06:15:14;25.20;82.00
71672;DHT22;67659;45.554;11.812;2023-05-21T06:17:41;25.30;82.10
71672;DHT22;67659;45.554;11.812;2023-05-21T06:20:08;25.70;82.40
71672;DHT22;67659;45.554;11.812;2023-05-21T06:22:34;25.80;81.30
71672;DHT22;67659;45.554;11.812;2023-05-21T06:25:01;25.50;81.40
71672;DHT22;67659;45.554;11.812;2023-05-21T06:27:27;24.90;80.70
71672;DHT22;67659;45.554;11.812;2023-05-21T06:29:53;24.70;81.70
71672;DHT22;67659;45.554;11.812;2023-05-21T06:32:19;24.40;82.30
71672;DHT22;67659;45.554;11.812;2023-05-21T06:34:47;24.30;82.50
71672;DHT22;67659;45.554;11.812;2023-05-21T06:37:13;24.00;84.00
71672;DHT22;67659;45.554;11.812;2023-05-21T06:39:39;23.90;84.80
71672;DHT22;67659;45.554;11.812;2023-05-21T06:42:05;23.90;84.60
71672;DHT22;67659;45.554;11.812;2023-05-21T06:44:30;24.00;83.80
71672;DHT22;67659;45.554;11.812;2023-05-21T06:46:56;24.00;84.10
71672;DHT22;67659;45.554;11.812;2023-05-21T06:49:22;24.00;83.90
71672;DHT22;67659;45.554;11.812;2023-05-21T06:51:48;24.20;83.90
71672;DHT22;67659;45.554;11.812;2023-05-21T06:54:14;24.30;84.40
71672;DHT22;67659;45.554;11.812;2023-05-21T06:56:40;24.40;84.50
71672;DHT22;67659;45.554;11.812;2023-05-21T06:59:05;24.60;84.10
71672;DHT22;67659;45.554;11.812;2023-05-21T07:01:31;24.70;84.20
71672;DHT22;67659;45.554;11.812;2023-05-21T07:03:58;24.90;83.50
71672;DHT22;67659;45.554;11.812;2023-05-21T07:06:24;25.10;83.20
71672;DHT22;67659;45.554;11.812;2023-05-21T07:08:50;25.50;83.00
71672;DHT22;67659;45.554;11.812;2023-05-21T07:11:16;25.80;81.70
71672;DHT22;67659;45.554;11.812;2023-05-21T07:13:42;25.80;81.20
71672;DHT22;67659;45.554;11.812;2023-05-21T07:16:08;26.00;80.60
71672;DHT22;67659;45.554;11.812;2023-05-21T07:18:33;26.20;80.00
71672;DHT22;67659;45.554;11.812;2023-05-21T07:20:59;26.70;79.00
71672;DHT22;67659;45.554;11.812;2023-05-21T07:23:25;27.60;78.00
71672;DHT22;67659;45.554;11.812;2023-05-21T07:25:51;28.30;77.60
71672;DHT22;67659;45.554;11.812;2023-05-21T07:28:17;29.30;75.30
71672;DHT22;67659;45.554;11.812;2023-05-21T07:30:43;29.90;75.10
71672;DHT22;67659;45.554;11.812;2023-05-21T07:33:09;29.60;73.00
71672;DHT22;67659;45.554;11.812;2023-05-21T07:35:34;29.80;74.30
71672;DHT22;67659;45.554;11.812;2023-05-21T07:38:00;29.60;73.50
71672;DHT22;67659;45.554;11.812;2023-05-21T07:40:26;29.90;73.90
71672;DHT22;67659;45.554;11.812;2023-05-21T07:42:52;30.10;71.30
71672;DHT22;67659;45.554;11.812;2023-05-21T07:45:18;30.70;70.30
71672;DHT22;67659;45.554;11.812;2023-05-21T07:47:44;30.60;70.40
71672;DHT22;67659;45.554;11.812;2023-05-21T07:50:11;31.50;68.90
71672;DHT22;67659;45.554;11.812;2023-05-21T07:52:37;31.40;67.20
71672;DHT22;67659;45.554;11.812;2023-05-21T07:55:03;31.10;67.20
71672;DHT22;67659;45.554;11.812;2023-05-21T07:57:29;31.50;64.60
71672;DHT22;67659;45.554;11.812;2023-05-21T07:59:55;32.00;63.00
71672;DHT22;67659;45.554;11.812;2023-05-21T08:02:21;32.00;62.50
71672;DHT22;67659;45.554;11.812;2023-05-21T08:04:46;31.70;64.10
71672;DHT22;67659;45.554;11.812;2023-05-21T08:07:13;32.00;62.40
71672;DHT22;67659;45.554;11.812;2023-05-21T08:09:41;31.50;63.70
71672;DHT22;67659;45.554;11.812;2023-05-21T08:12:07;31.70;63.30
71672;DHT22;67659;45.554;11.812;2023-05-21T08:14:33;32.10;62.10
71672;DHT22;67659;45.554;11.812;2023-05-21T08:16:58;33.10;62.30
71672;DHT22;67659;45.554;11.812;2023-05-21T08:19:24;33.20;59.80
71672;DHT22;67659;45.554;11.812;2023-05-21T08:21:50;33.40;57.10
71672;DHT22;67659;45.554;11.812;2023-05-21T08:24:16;34.10;57.10
71672;DHT22;67659;45.554;11.812;2023-05-21T08:26:42;33.70;57.40
71672;DHT22;67659;45.554;11.812;2023-05-21T08:29:09;33.40;57.60
71672;DHT22;67659;45.554;11.812;2023-05-21T08:31:35;33.90;58.00
71672;DHT22;67659;45.554;11.812;2023-05-21T08:34:01;34.10;56.90
71672;DHT22;67659;45.554;11.812;2023-05-21T08:36:26;33.90;56.20
71672;DHT22;67659;45.554;11.812;2023-05-21T08:38:52;33.70;56.20
71672;DHT22;67659;45.554;11.812;2023-05-21T08:41:20;34.10;56.70
71672;DHT22;67659;45.554;11.812;2023-05-21T08:43:54;33.20;56.40
71672;DHT22;67659;45.554;11.812;2023-05-21T08:46:22;33.70;56.20
71672;DHT22;67659;45.554;11.812;2023-05-21T08:48:50;34.00;55.10
71672;DHT22;67659;45.554;11.812;2023-05-21T08:51:20;33.90;54.50
71672;DHT22;67659;45.554;11.812;2023-05-21T08:53:47;33.90;52.80
71672;DHT22;67659;45.554;11.812;2023-05-21T08:56:16;33.80;53.30
71672;DHT22;67659;45.554;11.812;2023-05-21T08:58:44;34.20;54.30
71672;DHT22;67659;45.554;11.812;2023-05-21T09:01:11;34.20;49.70
71672;DHT22;67659;45.554;11.812;2023-05-21T09:03:39;32.60;52.00
71672;DHT22;67659;45.554;11.812;2023-05-21T09:06:09;33.60;52.50
71672;DHT22;67659;45.554;11.812;2023-05-21T09:08:37;32.80;53.80
71672;DHT22;67659;45.554;11.812;2023-05-21T09:11:06;32.50;51.70
71672;DHT22;67659;45.554;11.812;2023-05-21T09:13:32;32.50;55.30
71672;DHT22;67659;45.554;11.812;2023-05-21T09:15:58;32.90;53.00
71672;DHT22;67659;45.554;11.812;2023-05-21T09:18:24;33.00;52.20
71672;DHT22;67659;45.554;11.812;2023-05-21T09:20:52;32.90;50.80
71672;DHT22;67659;45.554;11.812;2023-05-21T09:23:18;33.30;51.00
71672;DHT22;67659;45.554;11.812;2023-05-21T09:25:46;32.90;49.80
71672;DHT22;67659;45.554;11.812;2023-05-21T09:28:14;33.10;49.90
71672;DHT22;67659;45.554;11.812;2023-05-21T09:30:45;33.30;52.30
71672;DHT22;67659;45.554;11.812;2023-05-21T09:33:11;32.70;51.60
71672;DHT22;67659;45.554;11.812;2023-05-21T09:35:43;33.50;51.80
71672;DHT22;67659;45.554;11.812;2023-05-21T09:38:09;34.20;50.20
71672;DHT22;67659;45.554;11.812;2023-05-21T09:40:35;34.40;50.80
71672;DHT22;67659;45.554;11.812;2023-05-21T09:43:01;34.60;48.30
71672;DHT22;67659;45.554;11.812;2023-05-21T09:45:28;34.30;49.40
71672;DHT22;67659;45.554;11.812;2023-05-21T09:47:55;34.10;46.90
71672;DHT22;67659;45.554;11.812;2023-05-21T09:50:25;33.20;47.60
71672;DHT22;67659;45.554;11.812;2023-05-21T09:52:53;33.50;48.70
71672;DHT22;67659;45.554;11.812;2023-05-21T09:55:22;34.00;49.50
71672;DHT22;67659;45.554;11.812;2023-05-21T09:57:49;33.50;49.80
71672;DHT22;67659;45.554;11.812;2023-05-21T10:00:26;33.40;49.30
71672;DHT22;67659;45.554;11.812;2023-05-21T10:02:55;33.90;50.30
71672;DHT22;67659;45.554;11.812;2023-05-21T10:05:26;33.70;47.30
71672;DHT22;67659;45.554;11.812;2023-05-21T10:07:58;34.80;48.00
71672;DHT22;67659;45.554;11.812;2023-05-21T10:10:27;34.50;48.40
71672;DHT22;67659;45.554;11.812;2023-05-21T10:12:59;34.60;46.80
71672;DHT22;67659;45.554;11.812;2023-05-21T10:15:28;34.60;45.10
71672;DHT22;67659;45.554;11.812;2023-05-21T10:17:56;34.20;47.10
71672;DHT22;67659;45.554;11.812;2023-05-21T10:20:23;33.90;47.60
71672;DHT22;67659;45.554;11.812;2023-05-21T10:22:49;33.70;46.10
71672;DHT22;67659;45.554;11.812;2023-05-21T10:25:16;33.60;46.70
71672;DHT22;67659;45.554;11.812;2023-05-21T10:27:43;33.40;45.30
71672;DHT22;67659;45.554;11.812;2023-05-21T10:30:10;32.70;48.40
71672;DHT22;67659;45.554;11.812;2023-05-21T10:32:39;33.00;47.60
71672;DHT22;67659;45.554;11.812;2023-05-21T10:35:08;32.70;48.50
71672;DHT22;67659;45.554;11.812;2023-05-21T10:37:34;33.40;46.70
71672;DHT22;67659;45.554;11.812;2023-05-21T10:40:01;33.60;48.30
71672;DHT22;67659;45.554;11.812;2023-05-21T10:42:56;32.60;46.30
71672;DHT22;67659;45.554;11.812;2023-05-21T10:45:41;32.80;49.00
71672;DHT22;67659;45.554;11.812;2023-05-21T10:48:29;32.50;47.20
71672;DHT22;67659;45.554;11.812;2023-05-21T10:51:21;32.90;46.10
71672;DHT22;67659;45.554;11.812;2023-05-21T10:54:02;33.10;47.60
71672;DHT22;67659;45.554;11.812;2023-05-21T10:56:53;32.70;46.80
71672;DHT22;67659;45.554;11.812;2023-05-21T10:59:35;33.10;46.70
71672;DHT22;67659;45.554;11.812;2023-05-21T11:02:05;33.40;44.80
71672;DHT22;67659;45.554;11.812;2023-05-21T11:04:31;33.00;48.00
71672;DHT22;67659;45.554;11.812;2023-05-21T11:06:59;32.20;47.90
71672;DHT22;67659;45.554;11.812;2023-05-21T11:09:26;31.70;52.70
71672;DHT22;67659;45.554;11.812;2023-05-21T11:11:57;32.30;49.50
71672;DHT22;67659;45.554;11.812;2023-05-21T11:14:39;32.60;51.80
71672;DHT22;67659;45.554;11.812;2023-05-21T11:17:11;32.70;48.80
71672;DHT22;67659;45.554;11.812;2023-05-21T11:19:40;32.50;51.10
71672;DHT22;67659;45.554;11.812;2023-05-21T11:22:09;32.50;52.00
71672;DHT22;67659;45.554;11.812;2023-05-21T11:24:37;32.00;51.10
71672;DHT22;67659;45.554;11.812;2023-05-21T11:27:04;32.90;47.50
71672;DHT22;67659;45.554;11.812;2023-05-21T11:29:42;32.30;46.80
71672;DHT22;67659;45.554;11.812;2023-05-21T11:32:10;32.00;48.30
71672;DHT22;67659;45.554;11.812;2023-05-21T11:34:44;32.00;46.80
71672;DHT22;67659;45.554;11.812;2023-05-21T11:37:22;31.80;50.80
71672;DHT22;67659;45.554;11.812;2023-05-21T11:39:51;31.70;51.10
71672;DHT22;67659;45.554;11.812;2023-05-21T11:42:31;31.50;51.30
71672;DHT22;67659;45.554;11.812;2023-05-21T11:44:58;31.50;52.50
71672;DHT22;67659;45.554;11.812;2023-05-21T11:47:25;31.10;52.50
71672;DHT22;67659;45.554;11.812;2023-05-21T11:49:51;31.30;52.80
71672;DHT22;67659;45.554;11.812;2023-05-21T11:52:17;31.30;53.80
71672;DHT22;67659;45.554;11.812;2023-05-21T11:54:47;31.30;51.30
71672;DHT22;67659;45.554;11.812;2023-05-21T11:57:15;31.60;50.20
71672;DHT22;67659;45.554;11.812;2023-05-21T11:59:44;31.40;50.50
71672;DHT22;67659;45.554;11.812;2023-05-21T12:02:14;31.30;49.90
71672;DHT22;67659;45.554;11.812;2023-05-21T12:04:41;31.00;52.20
71672;DHT22;67659;45.554;11.812;2023-05-21T12:07:09;30.90;53.70
71672;DHT22;67659;45.554;11.812;2023-05-21T12:09:45;31.50;52.50
71672;DHT22;67659;45.554;11.812;2023-05-21T12:12:15;31.20;51.30
71672;DHT22;67659;45.554;11.812;2023-05-21T12:14:44;31.60;53.70
71672;DHT22;67659;45.554;11.812;2023-05-21T12:17:11;31.60;50.60
71672;DHT22;67659;45.554;11.812;2023-05-21T12:19:38;31.40;49.30
71672;DHT22;67659;45.554;11.812;2023-05-21T12:24:42;30.90;48.00
71672;DHT22;67659;45.554;11.812;2023-05-21T12:27:11;30.50;48.80
71672;DHT22;67659;45.554;11.812;2023-05-21T12:29:41;30.30;50.40
71672;DHT22;67659;45.554;11.812;2023-05-21T12:32:10;30.40;52.00
71672;DHT22;67659;45.554;11.812;2023-05-21T12:34:46;30.40;50.80
71672;DHT22;67659;45.554;11.812;2023-05-21T12:37:29;30.50;49.50
71672;DHT22;67659;45.554;11.812;2023-05-21T12:39:59;30.10;48.80
71672;DHT22;67659;45.554;11.812;2023-05-21T12:42:27;30.10;48.10
71672;DHT22;67659;45.554;11.812;2023-05-21T12:44:56;30.10;50.60
71672;DHT22;67659;45.554;11.812;2023-05-21T12:47:26;30.10;48.00
71672;DHT22;67659;45.554;11.812;2023-05-21T12:49:57;30.10;49.50
71672;DHT22;67659;45.554;11.812;2023-05-21T12:52:23;30.00;49.10
71672;DHT22;67659;45.554;11.812;2023-05-21T12:54:53;30.00;50.70
71672;DHT22;67659;45.554;11.812;2023-05-21T12:57:20;29.90;50.20
71672;DHT22;67659;45.554;11.812;2023-05-21T12:59:57;30.00;51.50
71672;DHT22;67659;45.554;11.812;2023-05-21T13:02:26;30.10;49.80
71672;DHT22;67659;45.554;11.812;2023-05-21T13:04:58;30.20;48.30
71672;DHT22;67659;45.554;11.812;2023-05-21T13:07:25;30.00;50.70
71672;DHT22;67659;45.554;11.812;2023-05-21T13:09:52;29.90;52.00
71672;DHT22;67659;45.554;11.812;2023-05-21T13:12:20;30.00;50.50
71672;DHT22;67659;45.554;11.812;2023-05-21T13:14:46;29.50;49.50
71672;DHT22;67659;45.554;11.812;2023-05-21T13:17:12;29.60;48.20
71672;DHT22;67659;45.554;11.812;2023-05-21T13:19:38;29.60;45.90
71672;DHT22;67659;45.554;11.812;2023-05-21T13:22:04;29.60;49.20
71672;DHT22;67659;45.554;11.812;2023-05-21T13:24:31;29.60;49.00
71672;DHT22;67659;45.554;11.812;2023-05-21T13:26:57;29.50;48.30
71672;DHT22;67659;45.554;11.812;2023-05-21T13:29:23;29.70;48.90
71672;DHT22;67659;45.554;11.812;2023-05-21T13:31:49;29.60;50.70
71672;DHT22;67659;45.554;11.812;2023-05-21T13:34:15;29.50;49.00
71672;DHT22;67659;45.554;11.812;2023-05-21T13:36:41;29.40;49.70
71672;DHT22;67659;45.554;11.812;2023-05-21T13:39:07;29.60;48.10
71672;DHT22;67659;45.554;11.812;2023-05-21T13:41:33;29.30;49.60
71672;DHT22;67659;45.554;11.812;2023-05-21T13:43:59;29.30;47.50
71672;DHT22;67659;45.554;11.812;2023-05-21T13:46:25;29.30;49.70
71672;DHT22;67659;45.554;11.812;2023-05-21T13:48:51;29.50;49.90
71672;DHT22;67659;45.554;11.812;2023-05-21T13:51:17;29.40;51.00
71672;DHT22;67659;45.554;11.812;2023-05-21T13:53:43;29.30;51.30
71672;DHT22;67659;45.554;11.812;2023-05-21T13:56:08;29.30;49.90
71672;DHT22;67659;45.554;11.812;2023-05-21T13:58:34;29.40;48.70
71672;DHT22;67659;45.554;11.812;2023-05-21T14:01:01;29.40;48.80
71672;DHT22;67659;45.554;11.812;2023-05-21T14:03:27;29.30;48.20
71672;DHT22;67659;45.554;11.812;2023-05-21T14:05:54;29.30;48.10
71672;DHT22;67659;45.554;11.812;2023-05-21T14:08:20;29.20;52.10
71672;DHT22;67659;45.554;11.812;2023-05-21T14:10:48;29.30;50.80
71672;DHT22;67659;45.554;11.812;2023-05-21T14:13:14;29.30;50.60
71672;DHT22;67659;45.554;11.812;2023-05-21T14:15:41;29.40;52.80
71672;DHT22;67659;45.554;11.812;2023-05-21T14:18:07;29.50;49.90
71672;DHT22;67659;45.554;11.812;2023-05-21T14:20:37;29.60;51.50
71672;DHT22;67659;45.554;11.812;2023-05-21T14:23:03;29.70;50.20
71672;DHT22;67659;45.554;11.812;2023-05-21T14:25:29;29.60;51.80
71672;DHT22;67659;45.554;11.812;2023-05-21T14:27:56;29.60;52.10
71672;DHT22;67659;45.554;11.812;2023-05-21T14:30:21;29.60;50.50
71672;DHT22;67659;45.554;11.812;2023-05-21T14:32:47;29.50;55.50
71672;DHT22;67659;45.554;11.812;2023-05-21T14:35:13;29.20;53.00
71672;DHT22;67659;45.554;11.812;2023-05-21T14:37:40;29.10;53.20
71672;DHT22;67659;45.554;11.812;2023-05-21T14:40:06;29.20;53.00
71672;DHT22;67659;45.554;11.812;2023-05-21T14:42:34;29.30;52.50
71672;DHT22;67659;45.554;11.812;2023-05-21T14:45:00;29.30;51.80
71672;DHT22;67659;45.554;11.812;2023-05-21T14:47:25;29.30;53.20
71672;DHT22;67659;45.554;11.812;2023-05-21T14:49:51;29.20;52.40
71672;DHT22;67659;45.554;11.812;2023-05-21T14:52:19;29.40;53.60
71672;DHT22;67659;45.554;11.812;2023-05-21T14:54:45;29.30;52.40
71672;DHT22;67659;45.554;11.812;2023-05-21T14:57:11;29.10;52.30
71672;DHT22;67659;45.554;11.812;2023-05-21T14:59:37;29.10;53.30
71672;DHT22;67659;45.554;11.812;2023-05-21T15:02:03;29.20;51.50
71672;DHT22;67659;45.554;11.812;2023-05-21T15:04:29;29.20;51.20
71672;DHT22;67659;45.554;11.812;2023-05-21T15:06:55;29.30;51.80
71672;DHT22;67659;45.554;11.812;2023-05-21T15:09:21;29.20;51.60
71672;DHT22;67659;45.554;11.812;2023-05-21T15:11:47;29.30;51.80
71672;DHT22;67659;45.554;11.812;2023-05-21T15:14:17;29.30;52.30
71672;DHT22;67659;45.554;11.812;2023-05-21T15:16:43;29.20;52.60
71672;DHT22;67659;45.554;11.812;2023-05-21T15:19:09;29.20;55.10